• LFSB

    METAR de LFSB (émis le 2020/07/09 22:30 UTC):
    LFSB 092230Z AUTO 16004KT CAVOK 19/14 Q1014 NOSIG

    TAF de LFSB (émis le 2020/07/09 18:21 UTC):
    LFSB 091701Z 0918/1018 30008KT CAVOK BECMG 0918/0920 18004KT BECMG 1006/1009 27010KT TEMPO 1011/1016 28015G25KT BECMG 1016/1018 36010KT
  • LFSX

    METAR de LFSX (émis le 2020/07/09 22:30 UTC):
    LFSX 092230Z AUTO VRB02KT CAVOK 20/14 Q1014

    TAF de LFSX (émis le 2020/07/09 21:56 UTC):
    LFSX 092000Z 0921/1021 04005KT CAVOK
  • LFSD

    METAR de LFSD (émis le 2020/07/09 22:30 UTC):
    LFSD 092230Z AUTO 24003KT CAVOK 21/11 Q1014

    TAF de LFSD (émis le 2015/06/01 00:11 UTC):
    LFSD 010600Z 0100/0124 CNL
  • LFGJ

    METAR de LFGJ (émis le 2020/07/09 22:30 UTC):
    LFGJ 092230Z AUTO 05002KT CAVOK 19/15 Q1014

    TAF COURT de LFGJ
    (émis le 2020/07/09 17:03 UTC):
    TAF TAF LFGJ 091700Z 0917/0924 CNL
  • LFJL

    METAR de LFJL (émis le 2020/07/09 22:30 UTC):
    LFJL 092230Z AUTO 16011KT CAVOK 21/13 Q1012 NOSIG

    TAF de LFJL (émis le 2020/07/09 18:21 UTC):
    LFJL 091700Z 0918/1018 27010KT CAVOK TEMPO 0918/1006 VRB03KT
  • LFST

    METAR de LFST (émis le 2020/07/09 22:30 UTC):
    LFST 092230Z AUTO VRB02KT CAVOK 19/15 Q1013 NOSIG

    TAF de LFST (émis le 2020/07/09 18:21 UTC):
    LFST 091700Z 0918/1018 27010KT CAVOK TEMPO 0921/1008 18005KT BECMG 1012/1016 30015G25KT